Time;durP1;ratioP1;P1;durP2;ratioP2;P2;SDS_P1;SDS_P2;PMS_P1;PMS_P2;Temp;Humidity;BMP_temperature;BMP_pressure;BME280_temperature;BME280_humidity;BME280_pressure;Samples;Min_cycle;Max_cycle;Signal;HPM_P1;HPM_P2
2024/03/23 00:01:27;;;;;;;;;;;10.00;99.90;;;9.30;100.00;97145.69;4964686;28;1834;-69
2024/03/23 00:03:53;;;;;;;;;;;10.10;99.90;;;9.24;100.00;97143.38;4963552;28;1560;-69
2024/03/23 00:06:19;;;;;;;;;;;10.10;99.90;;;9.29;100.00;97133.66;4962605;28;1714;-69
2024/03/23 00:08:45;;;;;;;;;;;10.10;99.90;;;9.25;100.00;97125.19;4965370;28;1535;-69
2024/03/23 00:11:11;;;;;;;;;;;10.10;99.90;;;9.23;100.00;97118.38;4965150;28;1424;-69
2024/03/23 00:13:36;;;;;;;;;;;10.10;99.90;;;9.28;100.00;97111.25;4963997;28;2991;-70
2024/03/23 00:16:02;;;;;;;;;;;10.10;99.90;;;9.21;100.00;97111.53;4961616;28;1985;-69
2024/03/23 00:18:28;;;;;;;;;;;10.10;99.90;;;9.16;100.00;97110.06;4961255;28;1862;-69
2024/03/23 00:20:54;;;;;;;;;;;10.00;99.90;;;9.20;100.00;97093.47;4964399;28;1542;-70
2024/03/23 00:23:21;;;;;;;;;;;10.10;99.90;;;9.30;100.00;97099.06;4981939;28;1568;-69
2024/03/23 00:25:47;;;;;;;;;;;10.10;99.90;;;9.34;100.00;97092.84;4980332;28;1380;-69
2024/03/23 00:28:13;;;;;;;;;;;10.20;99.90;;;9.22;100.00;97094.25;4964226;28;2203;-69
2024/03/23 00:30:39;;;;;;;;;;;10.10;99.90;;;9.20;100.00;97098.66;4962487;28;2558;-69
2024/03/23 00:33:05;;;;;;;;;;;10.10;99.90;;;9.14;100.00;97094.56;4965909;28;2269;-69
2024/03/23 00:35:30;;;;;;;;;;;10.10;99.90;;;9.21;100.00;97087.38;4963860;28;1915;-69
2024/03/23 00:37:56;;;;;;;;;;;10.10;99.90;;;9.13;100.00;97076.53;4963647;28;1711;-69
2024/03/23 00:40:22;;;;;;;;;;;10.10;99.90;;;9.19;100.00;97081.41;4964735;28;2487;-69
2024/03/23 00:42:48;;;;;;;;;;;10.10;99.90;;;9.26;100.00;97087.16;4960857;28;1877;-70
2024/03/23 00:45:13;;;;;;;;;;;10.10;99.90;;;9.32;100.00;97082.56;4978429;28;1882;-69
2024/03/23 00:47:39;;;;;;;;;;;10.10;99.90;;;9.29;100.00;97082.69;4963445;28;1495;-69
2024/03/23 00:50:05;;;;;;;;;;;10.10;99.90;;;9.30;100.00;97073.19;4960828;28;1841;-69
2024/03/23 00:52:31;;;;;;;;;;;10.20;99.90;;;9.37;100.00;97071.97;4962933;28;1631;-69
2024/03/23 00:54:56;;;;;;;;;;;10.20;99.90;;;9.44;100.00;97075.97;4966228;28;3035;-69
2024/03/23 00:57:22;;;;;;;;;;;10.20;99.90;;;9.38;100.00;97073.69;4959509;28;1911;-69
2024/03/23 00:59:48;;;;;;;;;;;10.20;99.90;;;9.34;100.00;97075.56;4961089;28;1603;-69
2024/03/23 01:02:14;;;;;;;;;;;10.20;99.90;;;9.37;100.00;97080.63;4962343;28;1637;-69
2024/03/23 01:04:40;;;;;;;;;;;10.30;99.90;;;9.36;100.00;97084.09;4960841;28;1400;-69
2024/03/23 01:07:05;;;;;;;;;;;10.20;99.90;;;9.31;100.00;97070.53;4963272;28;1470;-69
2024/03/23 01:09:31;;;;;;;;;;;10.20;99.90;;;9.31;100.00;97075.72;4959685;28;2063;-69
2024/03/23 01:11:57;;;;;;;;;;;10.20;99.90;;;9.24;100.00;97076.03;4961327;28;1780;-70
2024/03/23 01:14:23;;;;;;;;;;;10.20;99.90;;;9.24;100.00;97070.84;4958409;28;1792;-70
2024/03/23 01:16:49;;;;;;;;;;;10.20;99.90;;;9.21;100.00;97088.25;4962340;28;1906;-69
2024/03/23 01:19:15;;;;;;;;;;;10.10;99.90;;;9.13;100.00;97069.59;4990520;28;1607;-69
2024/03/23 01:21:43;;;;;;;;;;;10.10;99.90;;;9.14;100.00;97080.78;4962163;28;1535;-69
2024/03/23 01:24:10;;;;;;;;;;;10.10;99.90;;;9.32;100.00;97084.31;4961218;28;2263;-70
2024/03/23 01:26:37;;;;;;;;;;;10.00;99.90;;;9.20;100.00;97076.19;4962756;28;1651;-69
2024/03/23 01:29:03;;;;;;;;;;;10.00;99.90;;;9.14;100.00;97066.09;4960031;28;1552;-69
2024/03/23 01:31:28;;;;;;;;;;;10.00;99.90;;;9.14;100.00;97067.84;4944666;28;1783;-69
2024/03/23 01:33:54;;;;;;;;;;;10.10;99.90;;;9.21;100.00;97077.00;4979525;28;1614;-69
2024/03/23 01:36:20;;;;;;;;;;;10.10;99.90;;;9.09;100.00;97068.06;4977723;28;1906;-69
2024/03/23 01:38:46;;;;;;;;;;;10.00;99.90;;;9.07;100.00;97069.03;4979485;28;3359;-69
2024/03/23 01:41:12;;;;;;;;;;;10.00;99.90;;;9.08;100.00;97066.38;4959762;28;1433;-69
2024/03/23 01:43:38;;;;;;;;;;;10.00;99.90;;;9.09;100.00;97060.28;4962097;28;1451;-69
2024/03/23 01:46:04;;;;;;;;;;;10.00;99.90;;;9.08;100.00;97068.16;4992518;28;1430;-69
2024/03/23 01:48:30;;;;;;;;;;;10.00;99.90;;;9.08;100.00;97061.22;4991943;28;1575;-69
2024/03/23 01:50:56;;;;;;;;;;;10.00;99.90;;;9.11;100.00;97068.84;4993288;28;1468;-69
2024/03/23 01:53:23;;;;;;;;;;;10.00;99.90;;;9.15;100.00;97061.78;4978230;28;1842;-69
2024/03/23 01:55:50;;;;;;;;;;;10.00;99.90;;;9.21;100.00;97064.06;4958471;28;1946;-69
2024/03/23 01:58:16;;;;;;;;;;;10.10;99.90;;;9.19;100.00;97061.56;4997542;28;2402;-69
2024/03/23 02:00:42;;;;;;;;;;;10.10;99.90;;;9.19;100.00;97066.75;4980737;28;1603;-69
2024/03/23 02:03:27;;;;;;;;;;;10.10;99.90;;;9.20;100.00;97065.00;4965918;28;1851;-69
2024/03/23 02:05:54;;;;;;;;;;;10.10;99.90;;;9.38;100.00;97061.56;4962949;28;1631;-70
2024/03/23 02:08:21;;;;;;;;;;;10.10;99.90;;;9.27;100.00;97056.03;4964799;28;1798;-69
2024/03/23 02:10:49;;;;;;;;;;;10.10;99.90;;;9.27;100.00;97060.38;4965077;28;2084;-69
2024/03/23 02:13:16;;;;;;;;;;;10.00;99.90;;;9.21;100.00;97054.56;4967488;28;1617;-69
2024/03/23 02:15:42;;;;;;;;;;;10.10;99.90;;;9.34;100.00;97046.22;4965612;28;1906;-69
2024/03/23 02:18:08;;;;;;;;;;;10.10;99.90;;;9.25;100.00;97047.50;4978986;28;1607;-70
2024/03/23 02:20:38;;;;;;;;;;;10.10;99.90;;;9.22;100.00;97039.88;4967262;28;1519;-69
2024/03/23 02:23:14;;;;;;;;;;;10.10;99.90;;;9.23;100.00;97046.72;4964792;28;1559;-69
2024/03/23 02:25:40;;;;;;;;;;;10.10;99.90;;;9.41;100.00;97053.63;4980601;28;3216;-69
2024/03/23 02:28:05;;;;;;;;;;;10.10;99.90;;;9.35;100.00;97041.00;4964173;28;1734;-69
2024/03/23 02:30:31;;;;;;;;;;;10.10;99.90;;;9.40;100.00;97038.19;4964606;28;2383;-69
2024/03/23 02:32:57;;;;;;;;;;;10.20;99.90;;;9.47;100.00;97041.34;4964375;28;1632;-70
2024/03/23 02:35:23;;;;;;;;;;;10.20;99.90;;;9.51;100.00;97029.88;4962554;28;1907;-69
2024/03/23 02:37:49;;;;;;;;;;;10.20;99.90;;;9.53;100.00;97031.50;4966049;28;1778;-69
2024/03/23 02:40:16;;;;;;;;;;;10.30;99.90;;;9.55;100.00;97031.44;4964906;28;2051;-69
2024/03/23 02:42:42;;;;;;;;;;;10.30;99.90;;;9.58;100.00;97019.19;4963235;28;1879;-69
2024/03/23 02:45:08;;;;;;;;;;;10.20;99.90;;;9.39;100.00;97011.41;4965084;28;2545;-69
2024/03/23 02:47:34;;;;;;;;;;;10.20;99.90;;;9.30;100.00;96993.72;4966283;28;1986;-69
2024/03/23 02:50:01;;;;;;;;;;;10.30;99.90;;;9.31;100.00;96992.84;4962248;28;1568;-70
2024/03/23 02:52:26;;;;;;;;;;;10.20;99.90;;;9.29;100.00;96999.00;4969640;28;1615;-69
2024/03/23 02:54:52;;;;;;;;;;;10.10;99.90;;;9.35;100.00;97017.69;4996923;28;1837;-69
2024/03/23 02:57:18;;;;;;;;;;;10.10;99.90;;;9.34;100.00;97010.81;4996542;28;1902;-69
2024/03/23 02:59:44;;;;;;;;;;;10.10;99.90;;;9.28;100.00;97024.03;4967412;28;2066;-69
2024/03/23 03:02:11;;;;;;;;;;;10.10;99.90;;;9.30;100.00;97027.38;4981987;28;1484;-69
2024/03/23 03:04:37;;;;;;;;;;;10.00;99.90;;;9.34;100.00;97013.41;4981358;28;1560;-69
2024/03/23 03:07:03;;;;;;;;;;;10.00;99.90;;;9.24;100.00;97022.50;4964272;28;1664;-69
2024/03/23 03:09:30;;;;;;;;;;;10.00;99.90;;;9.24;100.00;97032.00;4964882;28;1504;-69
2024/03/23 03:11:55;;;;;;;;;;;10.00;99.90;;;9.26;100.00;97022.44;4961876;28;3114;-69
2024/03/23 03:14:22;;;;;;;;;;;10.00;99.90;;;9.25;100.00;97023.34;4964948;28;2354;-70
2024/03/23 03:16:48;;;;;;;;;;;10.00;99.90;;;9.20;100.00;97026.16;4995830;28;2009;-69
2024/03/23 03:19:16;;;;;;;;;;;10.00;99.90;;;9.17;100.00;97019.38;4965219;28;1693;-69
2024/03/23 03:21:42;;;;;;;;;;;10.00;99.90;;;9.17;100.00;97013.34;4965710;28;1617;-69
2024/03/23 03:24:08;;;;;;;;;;;9.90;99.90;;;9.14;100.00;97009.13;4964997;28;1603;-69
2024/03/23 03:26:33;;;;;;;;;;;9.90;99.90;;;9.15;100.00;97010.00;4964646;28;1779;-69
2024/03/23 03:28:59;;;;;;;;;;;10.00;99.90;;;9.05;100.00;96991.44;4962128;28;2096;-69
2024/03/23 03:31:25;;;;;;;;;;;9.90;99.90;;;9.02;100.00;97003.69;4995979;28;1602;-69
2024/03/23 03:33:51;;;;;;;;;;;9.90;99.90;;;9.10;100.00;97017.97;4962608;28;1733;-69
2024/03/23 03:36:17;;;;;;;;;;;9.80;99.90;;;9.16;100.00;97022.00;4964722;28;1907;-69
2024/03/23 03:38:43;;;;;;;;;;;9.80;99.90;;;9.03;100.00;97019.13;4980182;28;1454;-69
2024/03/23 03:41:08;;;;;;;;;;;9.80;99.90;;;9.05;100.00;96999.19;4994650;28;1732;-70
2024/03/23 03:43:34;;;;;;;;;;;9.80;99.90;;;9.00;100.00;97022.72;4979671;28;1635;-69
2024/03/23 03:46:00;;;;;;;;;;;9.70;99.90;;;8.95;100.00;97016.91;4963846;28;1701;-69
2024/03/23 03:48:27;;;;;;;;;;;9.70;99.90;;;8.89;100.00;97024.94;4998569;28;1388;-70
2024/03/23 03:50:53;;;;;;;;;;;9.70;99.90;;;8.83;100.00;97017.47;4980650;28;1304;-69
2024/03/23 03:53:20;;;;;;;;;;;9.70;99.90;;;8.87;100.00;97044.91;4947713;28;1667;-69
2024/03/23 03:55:46;;;;;;;;;;;9.60;99.90;;;8.70;100.00;97037.84;4965571;28;1910;-69
2024/03/23 03:58:12;;;;;;;;;;;9.50;99.90;;;8.53;100.00;97038.59;4962433;28;3083;-70
2024/03/23 04:00:38;;;;;;;;;;;9.40;99.90;;;8.35;100.00;97034.19;4965719;28;1872;-68
2024/03/23 04:03:04;;;;;;;;;;;9.30;99.90;;;8.25;100.00;97053.56;4962495;28;1500;-69
2024/03/23 04:05:30;;;;;;;;;;;9.10;99.90;;;8.16;100.00;97070.28;4962057;28;1611;-69
2024/03/23 04:07:55;;;;;;;;;;;9.00;99.90;;;8.05;100.00;97070.75;4976279;28;1669;-70
2024/03/23 04:10:21;;;;;;;;;;;9.00;99.90;;;8.03;100.00;97069.09;4962584;28;2154;-69
2024/03/23 04:12:47;;;;;;;;;;;8.90;99.90;;;7.96;100.00;97086.63;4960550;28;1619;-69
2024/03/23 04:15:14;;;;;;;;;;;8.80;99.90;;;7.91;100.00;97075.59;4994229;28;1605;-69
2024/03/23 04:17:42;;;;;;;;;;;8.70;99.90;;;7.76;100.00;97090.00;4959800;28;2001;-69
2024/03/23 04:20:11;;;;;;;;;;;8.70;99.90;;;7.77;100.00;97090.81;4973648;28;1872;-69
2024/03/23 04:22:37;;;;;;;;;;;8.60;99.90;;;7.80;100.00;97119.13;4948543;28;1443;-69
2024/03/23 04:25:06;;;;;;;;;;;8.50;99.90;;;7.71;100.00;97107.41;4945307;28;2296;-69
2024/03/23 04:27:33;;;;;;;;;;;8.60;99.90;;;7.72;100.00;97140.91;4962475;28;1218;-69
2024/03/23 04:30:01;;;;;;;;;;;8.50;99.90;;;7.57;100.00;97136.31;4978249;28;1636;-69
2024/03/23 04:32:27;;;;;;;;;;;8.40;99.90;;;7.43;100.00;97131.69;4962394;28;1738;-69
2024/03/23 04:34:54;;;;;;;;;;;8.40;99.90;;;7.36;100.00;97144.88;4962433;28;1622;-69
2024/03/23 04:37:20;;;;;;;;;;;8.30;99.90;;;7.19;100.00;97124.84;4977883;28;1907;-69
2024/03/23 04:39:47;;;;;;;;;;;8.20;99.90;;;7.11;100.00;97127.69;4994682;28;3204;-69
2024/03/23 04:42:15;;;;;;;;;;;8.20;99.90;;;6.97;100.00;97146.25;4991442;28;1419;-69
2024/03/23 04:44:40;;;;;;;;;;;8.10;99.90;;;6.90;100.00;97155.09;4947275;28;2480;-69
2024/03/23 04:47:07;;;;;;;;;;;7.90;99.90;;;6.84;100.00;97161.34;4991781;28;1610;-69
2024/03/23 04:49:32;;;;;;;;;;;7.90;99.90;;;6.67;100.00;97164.47;4961742;28;1618;-69
2024/03/23 04:51:58;;;;;;;;;;;7.80;99.90;;;6.73;100.00;97160.00;4961673;28;1871;-69
2024/03/23 04:54:24;;;;;;;;;;;7.90;99.90;;;6.66;100.00;97155.06;4962848;28;1768;-69
2024/03/23 04:56:50;;;;;;;;;;;7.80;99.90;;;6.53;100.00;97153.78;4962574;28;2357;-69
2024/03/23 04:59:16;;;;;;;;;;;7.80;99.90;;;6.43;100.00;97160.13;4962864;28;2184;-69
2024/03/23 05:01:42;;;;;;;;;;;7.60;99.90;;;6.40;100.00;97179.09;4963171;28;1291;-69
2024/03/23 05:04:09;;;;;;;;;;;7.40;99.90;;;6.29;100.00;97163.16;4961737;28;1320;-69
2024/03/23 05:06:35;;;;;;;;;;;7.40;99.90;;;6.39;100.00;97167.13;4963199;28;1596;-69
2024/03/23 05:09:11;;;;;;;;;;;7.50;99.90;;;6.49;100.00;97170.25;4960805;28;1771;-69
2024/03/23 05:11:38;;;;;;;;;;;7.60;99.90;;;6.51;100.00;97162.47;4963009;28;2068;-69
2024/03/23 05:14:04;;;;;;;;;;;7.70;99.90;;;6.44;100.00;97169.56;4960925;28;1443;-70
2024/03/23 05:16:30;;;;;;;;;;;7.50;99.90;;;6.33;100.00;97172.47;4944909;28;1813;-69
2024/03/23 05:18:56;;;;;;;;;;;7.50;99.90;;;6.27;100.00;97167.50;4959879;28;1604;-69
2024/03/23 05:21:21;;;;;;;;;;;7.30;99.90;;;6.25;100.00;97179.63;4960384;28;1630;-69
2024/03/23 05:23:47;;;;;;;;;;;7.30;99.90;;;6.28;100.00;97171.78;4963346;28;1800;-69
2024/03/23 05:26:14;;;;;;;;;;;7.30;99.90;;;6.39;100.00;97168.88;4962670;28;3104;-69
2024/03/23 05:28:40;;;;;;;;;;;7.40;99.90;;;6.26;100.00;97183.88;4960692;28;1662;-69
2024/03/23 05:31:06;;;;;;;;;;;7.30;99.90;;;6.26;100.00;97178.72;4962749;28;1480;-69
2024/03/23 05:33:31;;;;;;;;;;;7.30;99.90;;;6.24;100.00;97188.22;4963878;28;1630;-69
2024/03/23 05:36:00;;;;;;;;;;;7.30;99.90;;;6.31;100.00;97189.72;4960508;28;1696;-70
2024/03/23 05:38:26;;;;;;;;;;;7.30;99.90;;;6.28;100.00;97193.25;4961257;28;1907;-69
2024/03/23 05:40:58;;;;;;;;;;;7.30;99.90;;;6.24;100.00;97196.78;4962373;28;2068;-69
2024/03/23 05:43:24;;;;;;;;;;;7.10;99.90;;;6.30;100.00;97194.94;4960836;28;1636;-69
2024/03/23 05:45:57;;;;;;;;;;;7.30;99.90;;;6.43;100.00;97206.53;4961150;28;1981;-69
2024/03/23 05:48:23;;;;;;;;;;;7.30;99.90;;;6.59;100.00;97227.50;4960427;28;1677;-69
2024/03/23 05:50:49;;;;;;;;;;;7.40;99.90;;;6.38;100.00;97219.56;4960326;28;1739;-69
2024/03/23 05:53:16;;;;;;;;;;;7.40;99.90;;;6.54;100.00;97221.66;4993151;28;1613;-69
2024/03/23 05:55:42;;;;;;;;;;;7.50;99.90;;;6.46;100.00;97214.19;4963743;28;2076;-69
2024/03/23 05:58:08;;;;;;;;;;;7.50;99.90;;;6.37;100.00;97209.31;4962084;28;1826;-69
2024/03/23 06:00:34;;;;;;;;;;;7.50;99.90;;;6.21;100.00;97206.38;4964415;28;1831;-69
2024/03/23 06:03:00;;;;;;;;;;;7.30;99.90;;;6.19;100.00;97236.50;4961516;28;1527;-69
2024/03/23 06:05:26;;;;;;;;;;;7.20;99.90;;;6.16;100.00;97221.97;4960734;28;1621;-69
2024/03/23 06:07:52;;;;;;;;;;;7.20;99.90;;;5.97;100.00;97229.41;4965445;28;1987;-69
2024/03/23 06:10:18;;;;;;;;;;;7.10;99.90;;;5.92;100.00;97238.97;4960888;28;1788;-69
2024/03/23 06:12:46;;;;;;;;;;;7.10;99.90;;;5.83;100.00;97255.53;4961551;28;1599;-70
2024/03/23 06:15:12;;;;;;;;;;;7.00;99.90;;;5.83;100.00;97260.69;4962377;28;1534;-69
2024/03/23 06:17:38;;;;;;;;;;;6.90;99.90;;;5.93;100.00;97266.44;4958227;28;1607;-69
2024/03/23 06:20:06;;;;;;;;;;;6.80;99.90;;;5.84;100.00;97266.72;4963307;28;1867;-69
2024/03/23 06:22:32;;;;;;;;;;;6.80;99.90;;;5.97;100.00;97273.19;4961148;28;3451;-69
2024/03/23 06:24:58;;;;;;;;;;;6.80;99.90;;;5.89;100.00;97277.72;4965004;28;1865;-69
2024/03/23 06:27:23;;;;;;;;;;;6.90;99.90;;;6.12;100.00;97274.50;4961312;28;1907;-69
2024/03/23 06:29:49;;;;;;;;;;;7.10;99.90;;;6.08;100.00;97271.16;4993443;28;2644;-69
2024/03/23 06:32:15;;;;;;;;;;;7.10;99.90;;;6.03;100.00;97277.34;4959796;28;1539;-69
2024/03/23 06:34:42;;;;;;;;;;;7.10;99.90;;;6.26;100.00;97277.50;4961888;28;1631;-69
2024/03/23 06:37:09;;;;;;;;;;;7.20;99.90;;;6.26;100.00;97282.66;4944097;28;1831;-69
2024/03/23 06:39:38;;;;;;;;;;;7.30;99.90;;;6.36;100.00;97300.41;4960286;28;1993;-69
2024/03/23 06:42:05;;;;;;;;;;;7.10;99.90;;;6.24;100.00;97289.59;4961987;28;1626;-70
2024/03/23 06:44:31;;;;;;;;;;;7.20;99.90;;;6.28;100.00;97280.03;4960307;28;2443;-69
2024/03/23 06:46:57;;;;;;;;;;;7.30;99.90;;;6.31;100.00;97285.09;4967949;28;1972;-69
2024/03/23 06:49:23;;;;;;;;;;;7.30;99.90;;;6.28;100.00;97298.91;4946361;28;1958;-69
2024/03/23 06:51:49;;;;;;;;;;;7.10;99.90;;;6.51;100.00;97292.22;4964866;28;1623;-69
2024/03/23 06:54:19;;;;;;;;;;;7.20;99.90;;;6.57;100.00;97288.59;4965107;28;1675;-69
2024/03/23 06:56:45;;;;;;;;;;;7.40;99.90;;;6.44;100.00;97291.56;4950359;28;1989;-69
2024/03/23 06:59:11;;;;;;;;;;;7.40;99.90;;;6.62;100.00;97294.47;4983183;28;1578;-69
2024/03/23 07:01:37;;;;;;;;;;;7.50;99.90;;;6.41;100.00;97308.84;4949431;28;1389;-69
2024/03/23 07:04:03;;;;;;;;;;;7.50;99.90;;;6.32;100.00;97291.09;4965246;28;2213;-69
2024/03/23 07:06:30;;;;;;;;;;;7.40;99.90;;;6.55;100.00;97305.88;4980386;28;1887;-69
2024/03/23 07:08:56;;;;;;;;;;;7.50;99.90;;;6.64;100.00;97310.75;4965059;28;1456;-69
2024/03/23 07:11:22;;;;;;;;;;;7.60;99.90;;;6.26;100.00;97312.75;4965600;28;3084;-69
2024/03/23 07:13:54;;;;;;;;;;;7.30;99.90;;;6.68;100.00;97309.72;4994689;28;1415;-69
2024/03/23 07:16:20;;;;;;;;;;;7.20;99.90;;;6.77;100.00;97311.19;4947479;28;1631;-70
2024/03/23 07:18:46;;;;;;;;;;;7.40;99.90;;;6.90;100.00;97315.06;4962105;28;1750;-69
2024/03/23 07:21:12;;;;;;;;;;;7.60;99.90;;;6.85;100.00;97311.81;4962331;28;1346;-69
2024/03/23 07:23:38;;;;;;;;;;;7.50;99.90;;;6.72;100.00;97319.06;4948683;28;1760;-69
2024/03/23 07:26:04;;;;;;;;;;;7.60;99.90;;;6.55;100.00;97337.66;4963252;28;1965;-69
2024/03/23 07:28:35;;;;;;;;;;;7.30;99.90;;;6.82;100.00;97325.66;4979585;28;1630;-70
2024/03/23 07:31:01;;;;;;;;;;;7.50;99.90;;;6.77;100.00;97314.59;4994276;28;1830;-68
2024/03/23 07:33:28;;;;;;;;;;;7.50;99.90;;;7.06;100.00;97311.09;4962579;28;1635;-68
2024/03/23 07:35:54;;;;;;;;;;;7.70;99.90;;;7.05;100.00;97306.00;4962475;28;1536;-68
2024/03/23 07:38:19;;;;;;;;;;;8.00;99.90;;;7.23;100.00;97300.22;4966760;28;1594;-68
2024/03/23 07:40:45;;;;;;;;;;;8.10;99.90;;;7.06;100.00;97318.00;4964213;28;2060;-69
2024/03/23 07:43:11;;;;;;;;;;;7.60;99.90;;;6.85;100.00;97327.28;4962041;28;1752;-68
2024/03/23 07:45:37;;;;;;;;;;;7.50;99.90;;;6.69;100.00;97339.81;4966070;28;1914;-68
2024/03/23 07:48:04;;;;;;;;;;;7.40;99.90;;;7.04;100.00;97328.38;4962013;28;1501;-69
2024/03/23 07:50:30;;;;;;;;;;;7.40;99.90;;;7.31;100.00;97347.25;4962089;28;1395;-68
2024/03/23 07:52:56;;;;;;;;;;;7.50;99.90;;;7.13;100.00;97330.63;4964235;28;3142;-68
2024/03/23 07:55:21;;;;;;;;;;;7.80;99.90;;;7.33;100.00;97326.56;4962808;28;1679;-68
2024/03/23 07:57:47;;;;;;;;;;;8.00;99.90;;;7.38;100.00;97327.25;4978751;28;1383;-68
2024/03/23 08:00:14;;;;;;;;;;;8.00;99.90;;;7.44;100.00;97323.63;4960395;28;1706;-68
2024/03/23 08:02:40;;;;;;;;;;;8.10;99.90;;;7.84;100.00;97328.22;4965612;28;1902;-68
2024/03/23 08:05:07;;;;;;;;;;;8.40;99.90;;;7.97;100.00;97318.31;4962159;28;1582;-68
2024/03/23 08:07:33;;;;;;;;;;;8.60;99.90;;;8.43;100.00;97314.03;4964333;28;1977;-68
2024/03/23 08:10:00;;;;;;;;;;;8.90;99.90;;;8.33;100.00;97297.16;4962865;28;1767;-68
2024/03/23 08:12:26;;;;;;;;;;;9.20;99.90;;;9.04;100.00;97302.19;4963790;28;1788;-69
2024/03/23 08:14:51;;;;;;;;;;;9.80;99.90;;;8.37;100.00;97293.56;4959161;28;1713;-68
2024/03/23 08:17:17;;;;;;;;;;;9.40;99.90;;;8.22;100.00;97289.81;4963452;28;1702;-68
2024/03/23 08:19:43;;;;;;;;;;;8.80;99.90;;;7.90;100.00;97304.75;4959428;28;1576;-68
2024/03/23 08:22:09;;;;;;;;;;;8.30;99.90;;;7.40;100.00;97316.88;4963068;28;2157;-69
2024/03/23 08:24:35;;;;;;;;;;;8.10;99.90;;;7.33;100.00;97326.56;4961455;28;1749;-70
2024/03/23 08:27:00;;;;;;;;;;;7.70;99.90;;;7.16;100.00;97337.47;4961035;28;1899;-70
2024/03/23 08:29:26;;;;;;;;;;;7.90;99.90;;;7.06;100.00;97334.31;4963369;28;2375;-69
2024/03/23 08:31:52;;;;;;;;;;;7.80;99.90;;;6.88;100.00;97343.50;4975067;28;2588;-70
2024/03/23 08:34:18;;;;;;;;;;;7.60;99.90;;;7.44;100.00;97344.28;4961843;28;1590;-69
2024/03/23 08:36:44;;;;;;;;;;;7.70;99.90;;;7.83;100.00;97333.47;4964330;28;1620;-69
2024/03/23 08:39:09;;;;;;;;;;;8.10;99.90;;;7.61;100.00;97331.63;4961094;28;3432;-69
2024/03/23 08:41:35;;;;;;;;;;;8.50;99.90;;;8.32;100.00;97319.56;4962821;28;1626;-69
2024/03/23 08:44:01;;;;;;;;;;;9.60;99.90;;;8.59;100.00;97301.34;4959860;28;2830;-69
2024/03/23 08:46:27;;;;;;;;;;;10.20;99.90;;;9.73;100.00;97288.91;4963697;28;1977;-69
2024/03/23 08:48:53;;;;;;;;;;;10.30;99.90;;;8.85;100.00;97300.34;4964201;28;1323;-69
2024/03/23 08:51:19;;;;;;;;;;;9.80;99.90;;;8.78;100.00;97306.63;4979467;28;1838;-70
2024/03/23 08:53:45;;;;;;;;;;;9.50;99.90;;;8.21;100.00;97301.06;4962768;28;1894;-69
2024/03/23 08:56:11;;;;;;;;;;;9.70;99.90;;;8.53;100.00;97299.00;4964725;28;2262;-69
2024/03/23 08:58:38;;;;;;;;;;;9.50;99.90;;;9.29;100.00;97278.69;4963273;28;2785;-70
2024/03/23 09:01:11;;;;;;;;;;;9.60;99.90;;;8.75;100.00;97283.47;4977419;28;1638;-69
2024/03/23 09:03:37;;;;;;;;;;;9.70;99.90;;;9.44;100.00;97272.84;4961490;28;1492;-69
2024/03/23 09:06:08;;;;;;;;;;;10.10;99.90;;;9.29;100.00;97276.13;4963323;28;1988;-69
2024/03/23 09:08:36;;;;;;;;;;;10.10;99.90;;;8.94;100.00;97279.25;4960339;28;1424;-70
2024/03/23 09:11:09;;;;;;;;;;;9.90;99.90;;;8.91;100.00;97281.94;4959148;28;1482;-69
2024/03/23 09:13:36;;;;;;;;;;;9.30;99.90;;;8.52;100.00;97281.81;4962941;28;1769;-69
2024/03/23 09:16:03;;;;;;;;;;;9.00;99.90;;;8.51;100.00;97283.56;4945663;28;1987;-69
2024/03/23 09:18:35;;;;;;;;;;;8.90;99.90;;;8.29;100.00;97296.44;4961515;28;1948;-69
2024/03/23 09:21:01;;;;;;;;;;;8.80;99.90;;;8.57;100.00;97278.13;4990406;28;1652;-70
2024/03/23 09:23:27;;;;;;;;;;;8.50;99.90;;;8.20;100.00;97272.66;4977083;28;1875;-69
2024/03/23 09:25:53;;;;;;;;;;;8.60;99.90;;;8.31;100.00;97279.13;4962223;28;1903;-70
2024/03/23 09:28:19;;;;;;;;;;;8.50;99.90;;;7.99;100.00;97264.81;4964056;28;3100;-69
2024/03/23 09:30:45;;;;;;;;;;;8.40;99.90;;;7.72;100.00;97267.50;4965319;28;1826;-69
2024/03/23 09:33:11;;;;;;;;;;;8.30;99.90;;;8.25;100.00;97252.66;4958863;28;1607;-70
2024/03/23 09:35:43;;;;;;;;;;;8.70;99.90;;;9.75;100.00;97237.84;4964433;28;1602;-69
2024/03/23 09:38:09;;;;;;;;;;;9.60;99.90;;;10.54;100.00;97235.09;4975325;28;1621;-69
2024/03/23 09:40:40;;;;;;;;;;;9.80;99.90;;;9.90;100.00;97228.50;4960349;28;2044;-70
2024/03/23 09:43:06;;;;;;;;;;;10.50;99.90;;;10.19;100.00;97219.41;4960423;28;1696;-69
2024/03/23 09:45:36;;;;;;;;;;;10.90;99.90;;;10.26;100.00;97198.31;4982725;28;1437;-70
2024/03/23 09:48:02;;;;;;;;;;;10.80;99.90;;;10.58;100.00;97195.09;4960230;28;1967;-69
2024/03/23 09:50:28;;;;;;;;;;;11.50;99.90;;;11.14;100.00;97198.38;4946891;28;1634;-69
2024/03/23 09:52:54;;;;;;;;;;;11.20;99.90;;;11.59;100.00;97187.38;4966893;28;1586;-70
2024/03/23 09:55:20;;;;;;;;;;;11.80;99.90;;;10.53;100.00;97189.28;4957290;28;2104;-70
2024/03/23 09:57:46;;;;;;;;;;;11.20;99.90;;;10.73;100.00;97186.56;4960845;28;1925;-69
2024/03/23 10:00:12;;;;;;;;;;;10.80;99.90;;;10.67;100.00;97198.09;4961198;28;1597;-70
2024/03/23 10:02:38;;;;;;;;;;;10.70;99.90;;;10.72;100.00;97204.78;4967365;28;1787;-70
2024/03/23 10:05:04;;;;;;;;;;;10.80;99.90;;;9.58;100.00;97244.63;4960751;28;1700;-70
2024/03/23 10:07:30;;;;;;;;;;;10.20;99.90;;;9.50;100.00;97233.72;4962747;28;1910;-70
2024/03/23 10:09:56;;;;;;;;;;;10.50;99.90;;;9.86;100.00;97239.97;4961249;28;3172;-69
2024/03/23 10:12:23;;;;;;;;;;;10.30;99.90;;;10.13;100.00;97204.97;4975270;28;1465;-70
2024/03/23 10:14:50;;;;;;;;;;;10.90;99.90;;;10.41;100.00;97206.28;4958103;28;1540;-70
2024/03/23 10:17:22;;;;;;;;;;;11.00;99.90;;;9.42;100.00;97196.97;4965422;28;1656;-69
2024/03/23 10:19:49;;;;;;;;;;;10.30;99.90;;;9.45;100.00;97198.59;4961177;28;1626;-69
2024/03/23 10:22:20;;;;;;;;;;;10.30;99.90;;;9.97;100.00;97185.88;4962416;28;1574;-70
2024/03/23 10:24:46;;;;;;;;;;;10.90;99.90;;;9.97;100.00;97206.59;4997078;28;2210;-70
2024/03/23 10:27:16;;;;;;;;;;;10.90;99.90;;;10.08;100.00;97188.78;4961525;28;1994;-70
2024/03/23 10:29:42;;;;;;;;;;;10.90;99.90;;;10.10;100.00;97178.34;4970439;28;2598;-70
2024/03/23 10:32:12;;;;;;;;;;;10.80;99.90;;;9.77;100.00;97166.03;4965756;28;1610;-70
2024/03/23 10:34:39;;;;;;;;;;;10.80;99.90;;;9.25;100.00;97189.91;4979964;28;2179;-70
2024/03/23 10:37:05;;;;;;;;;;;10.20;99.90;;;8.46;100.00;97194.09;4993672;28;1428;-69
2024/03/23 10:39:41;;;;;;;;;;;9.90;99.90;;;9.21;100.00;97227.22;4994715;28;2267;-69
2024/03/23 10:42:08;;;;;;;;;;;9.80;99.90;;;8.49;100.00;97220.69;4965864;28;2732;-70
2024/03/23 10:44:34;;;;;;;;;;;9.80;99.90;;;8.43;100.00;97239.03;4964156;28;1601;-69
2024/03/23 10:47:01;;;;;;;;;;;9.40;99.90;;;8.15;100.00;97258.16;4963547;28;1903;-70
2024/03/23 10:49:29;;;;;;;;;;;9.20;99.90;;;7.83;100.00;97276.63;4965726;28;1616;-69
2024/03/23 10:51:57;;;;;;;;;;;8.90;99.90;;;7.15;100.00;97293.63;4995004;28;1549;-69
2024/03/23 10:54:24;;;;;;;;;;;8.30;99.90;;;6.62;100.00;97323.69;4963012;28;2383;-69
2024/03/23 10:56:53;;;;;;;;;;;7.60;99.90;;;6.37;100.00;97320.16;4964804;28;3292;-69
2024/03/23 10:59:20;;;;;;;;;;;7.10;99.90;;;6.26;100.00;97317.91;4979210;28;1598;-69
2024/03/23 11:01:56;;;;;;;;;;;7.20;99.90;;;6.66;100.00;97329.56;4979794;28;1781;-69
2024/03/23 11:04:33;;;;;;;;;;;7.50;99.90;;;7.22;100.00;97331.25;4963888;28;1484;-69
2024/03/23 11:06:59;;;;;;;;;;;7.90;99.90;;;7.30;100.00;97321.53;4963406;28;1985;-69
2024/03/23 11:09:37;;;;;;;;;;;8.10;99.90;;;7.20;100.00;97315.78;4965165;28;1638;-69
2024/03/23 11:12:22;;;;;;;;;;;8.10;99.90;;;7.09;100.00;97295.53;4963710;28;2467;-69
2024/03/23 11:14:50;;;;;;;;;;;8.20;99.90;;;7.43;100.00;97314.19;4978709;28;1539;-69
2024/03/23 11:17:23;;;;;;;;;;;8.10;99.90;;;7.36;100.00;97313.53;4979276;28;1640;-69
2024/03/23 11:20:05;;;;;;;;;;;8.20;99.90;;;7.12;100.00;97356.53;4963643;28;1759;-69
2024/03/23 11:22:46;;;;;;;;;;;8.10;99.90;;;5.77;100.00;97415.41;4979708;28;1309;-69
2024/03/23 11:25:20;;;;;;;;;;;7.20;99.90;;;5.40;100.00;97418.88;4962102;28;2049;-69
2024/03/23 11:27:47;;;;;;;;;;;6.60;99.90;;;5.64;100.00;97409.72;4980278;28;1914;-69